sensor_id;sensor_type;location;lat;lon;timestamp;P1;durP1;ratioP1;P2;durP2;ratioP2
72053;SDS011;59918;51.280;7.950;2024-02-26T00:01:47;4.28;;;3.03;;
72053;SDS011;59918;51.280;7.950;2024-02-26T00:04:12;3.20;;;2.65;;
72053;SDS011;59918;51.280;7.950;2024-02-26T00:06:38;3.20;;;2.88;;
72053;SDS011;59918;51.280;7.950;2024-02-26T00:09:03;2.83;;;2.35;;
72053;SDS011;59918;51.280;7.950;2024-02-26T00:11:29;2.85;;;2.28;;
72053;SDS011;59918;51.280;7.950;2024-02-26T00:13:54;7.72;;;2.50;;
72053;SDS011;59918;51.280;7.950;2024-02-26T00:16:19;2.78;;;2.30;;
72053;SDS011;59918;51.280;7.950;2024-02-26T00:18:44;2.38;;;1.90;;
72053;SDS011;59918;51.280;7.950;2024-02-26T00:21:10;3.05;;;2.47;;
72053;SDS011;59918;51.280;7.950;2024-02-26T00:23:35;2.83;;;2.33;;
72053;SDS011;59918;51.280;7.950;2024-02-26T00:26:00;2.65;;;2.28;;
72053;SDS011;59918;51.280;7.950;2024-02-26T00:28:25;2.78;;;1.90;;
72053;SDS011;59918;51.280;7.950;2024-02-26T00:30:51;2.42;;;2.22;;
72053;SDS011;59918;51.280;7.950;2024-02-26T00:33:16;4.78;;;2.00;;
72053;SDS011;59918;51.280;7.950;2024-02-26T00:35:42;1.98;;;1.60;;
72053;SDS011;59918;51.280;7.950;2024-02-26T00:38:07;2.95;;;2.05;;
72053;SDS011;59918;51.280;7.950;2024-02-26T00:40:32;2.13;;;1.98;;
72053;SDS011;59918;51.280;7.950;2024-02-26T00:42:58;2.10;;;1.90;;
72053;SDS011;59918;51.280;7.950;2024-02-26T00:45:23;2.08;;;1.98;;
72053;SDS011;59918;51.280;7.950;2024-02-26T00:47:48;4.13;;;2.08;;
72053;SDS011;59918;51.280;7.950;2024-02-26T00:50:14;3.97;;;2.10;;
72053;SDS011;59918;51.280;7.950;2024-02-26T00:52:40;2.30;;;2.10;;
72053;SDS011;59918;51.280;7.950;2024-02-26T00:55:05;2.88;;;2.20;;
72053;SDS011;59918;51.280;7.950;2024-02-26T00:57:31;3.17;;;1.92;;
72053;SDS011;59918;51.280;7.950;2024-02-26T00:59:56;3.53;;;1.95;;
72053;SDS011;59918;51.280;7.950;2024-02-26T01:02:22;2.20;;;1.90;;
72053;SDS011;59918;51.280;7.950;2024-02-26T01:04:47;1.75;;;1.65;;
72053;SDS011;59918;51.280;7.950;2024-02-26T01:07:13;2.15;;;1.95;;
72053;SDS011;59918;51.280;7.950;2024-02-26T01:09:38;5.10;;;2.25;;
72053;SDS011;59918;51.280;7.950;2024-02-26T01:12:04;1.80;;;1.70;;
72053;SDS011;59918;51.280;7.950;2024-02-26T01:14:31;1.98;;;1.88;;
72053;SDS011;59918;51.280;7.950;2024-02-26T01:16:57;3.70;;;1.70;;
72053;SDS011;59918;51.280;7.950;2024-02-26T01:19:22;3.78;;;1.65;;
72053;SDS011;59918;51.280;7.950;2024-02-26T01:21:47;2.28;;;1.77;;
72053;SDS011;59918;51.280;7.950;2024-02-26T01:24:12;2.40;;;1.40;;
72053;SDS011;59918;51.280;7.950;2024-02-26T01:26:38;2.17;;;1.58;;
72053;SDS011;59918;51.280;7.950;2024-02-26T01:29:03;1.70;;;1.60;;
72053;SDS011;59918;51.280;7.950;2024-02-26T01:31:29;2.35;;;1.48;;
72053;SDS011;59918;51.280;7.950;2024-02-26T01:33:54;1.77;;;1.67;;
72053;SDS011;59918;51.280;7.950;2024-02-26T01:36:19;1.50;;;1.38;;
72053;SDS011;59918;51.280;7.950;2024-02-26T01:38:44;1.70;;;1.60;;
72053;SDS011;59918;51.280;7.950;2024-02-26T01:41:15;1.80;;;1.70;;
72053;SDS011;59918;51.280;7.950;2024-02-26T01:43:40;1.77;;;1.67;;
72053;SDS011;59918;51.280;7.950;2024-02-26T01:46:06;4.68;;;1.25;;
72053;SDS011;59918;51.280;7.950;2024-02-26T01:48:35;1.40;;;1.30;;
72053;SDS011;59918;51.280;7.950;2024-02-26T01:51:01;1.80;;;1.60;;
72053;SDS011;59918;51.280;7.950;2024-02-26T01:53:27;3.65;;;2.20;;
72053;SDS011;59918;51.280;7.950;2024-02-26T01:55:54;1.95;;;1.85;;
72053;SDS011;59918;51.280;7.950;2024-02-26T01:58:20;6.63;;;1.70;;
72053;SDS011;59918;51.280;7.950;2024-02-26T02:00:45;29.52;;;15.25;;
72053;SDS011;59918;51.280;7.950;2024-02-26T02:03:11;4.82;;;3.50;;
72053;SDS011;59918;51.280;7.950;2024-02-26T02:05:36;2.45;;;2.25;;
72053;SDS011;59918;51.280;7.950;2024-02-26T02:08:01;2.20;;;1.92;;
72053;SDS011;59918;51.280;7.950;2024-02-26T02:10:27;2.50;;;1.80;;
72053;SDS011;59918;51.280;7.950;2024-02-26T02:12:52;2.08;;;1.85;;
72053;SDS011;59918;51.280;7.950;2024-02-26T02:15:17;2.80;;;1.70;;
72053;SDS011;59918;51.280;7.950;2024-02-26T02:17:45;1.98;;;1.50;;
72053;SDS011;59918;51.280;7.950;2024-02-26T02:20:23;1.88;;;1.77;;
72053;SDS011;59918;51.280;7.950;2024-02-26T02:23:07;1.35;;;1.25;;
72053;SDS011;59918;51.280;7.950;2024-02-26T02:25:32;1.83;;;1.30;;
72053;SDS011;59918;51.280;7.950;2024-02-26T02:28:00;1.60;;;1.50;;
72053;SDS011;59918;51.280;7.950;2024-02-26T02:30:27;1.30;;;1.20;;
72053;SDS011;59918;51.280;7.950;2024-02-26T02:32:54;1.75;;;1.40;;
72053;SDS011;59918;51.280;7.950;2024-02-26T02:35:21;1.90;;;1.50;;
72053;SDS011;59918;51.280;7.950;2024-02-26T02:37:47;1.42;;;1.33;;
72053;SDS011;59918;51.280;7.950;2024-02-26T02:40:12;1.50;;;1.30;;
72053;SDS011;59918;51.280;7.950;2024-02-26T02:42:37;2.53;;;1.63;;
72053;SDS011;59918;51.280;7.950;2024-02-26T02:45:02;2.22;;;1.80;;
72053;SDS011;59918;51.280;7.950;2024-02-26T02:47:28;2.00;;;1.30;;
72053;SDS011;59918;51.280;7.950;2024-02-26T02:49:53;1.30;;;1.10;;
72053;SDS011;59918;51.280;7.950;2024-02-26T02:52:18;1.90;;;1.38;;
72053;SDS011;59918;51.280;7.950;2024-02-26T02:54:44;1.75;;;1.45;;
72053;SDS011;59918;51.280;7.950;2024-02-26T02:57:09;2.05;;;1.50;;
72053;SDS011;59918;51.280;7.950;2024-02-26T02:59:35;4.13;;;1.45;;
72053;SDS011;59918;51.280;7.950;2024-02-26T03:02:01;1.60;;;1.23;;
72053;SDS011;59918;51.280;7.950;2024-02-26T03:04:26;3.75;;;1.38;;
72053;SDS011;59918;51.280;7.950;2024-02-26T03:06:51;1.73;;;1.23;;
72053;SDS011;59918;51.280;7.950;2024-02-26T03:09:17;1.13;;;1.10;;
72053;SDS011;59918;51.280;7.950;2024-02-26T03:11:42;1.85;;;1.30;;
72053;SDS011;59918;51.280;7.950;2024-02-26T03:14:07;4.50;;;1.63;;
72053;SDS011;59918;51.280;7.950;2024-02-26T03:16:35;2.28;;;1.27;;
72053;SDS011;59918;51.280;7.950;2024-02-26T03:19:00;1.42;;;1.33;;
72053;SDS011;59918;51.280;7.950;2024-02-26T03:21:28;3.97;;;1.23;;
72053;SDS011;59918;51.280;7.950;2024-02-26T03:23:53;4.53;;;1.70;;
72053;SDS011;59918;51.280;7.950;2024-02-26T03:26:18;2.50;;;1.50;;
72053;SDS011;59918;51.280;7.950;2024-02-26T03:28:44;2.00;;;1.55;;
72053;SDS011;59918;51.280;7.950;2024-02-26T03:31:09;4.78;;;1.55;;
72053;SDS011;59918;51.280;7.950;2024-02-26T03:33:34;2.22;;;2.03;;
72053;SDS011;59918;51.280;7.950;2024-02-26T03:36:00;2.15;;;2.00;;
72053;SDS011;59918;51.280;7.950;2024-02-26T03:38:25;1.73;;;1.63;;
72053;SDS011;59918;51.280;7.950;2024-02-26T03:40:50;1.67;;;1.58;;
72053;SDS011;59918;51.280;7.950;2024-02-26T03:43:16;3.17;;;1.70;;
72053;SDS011;59918;51.280;7.950;2024-02-26T03:45:41;1.80;;;1.60;;
72053;SDS011;59918;51.280;7.950;2024-02-26T03:48:07;3.53;;;2.00;;
72053;SDS011;59918;51.280;7.950;2024-02-26T03:50:32;1.52;;;1.42;;
72053;SDS011;59918;51.280;7.950;2024-02-26T03:52:57;1.38;;;1.27;;
72053;SDS011;59918;51.280;7.950;2024-02-26T03:55:22;1.27;;;1.15;;
72053;SDS011;59918;51.280;7.950;2024-02-26T03:57:48;1.20;;;1.10;;
72053;SDS011;59918;51.280;7.950;2024-02-26T04:00:13;1.10;;;1.00;;
72053;SDS011;59918;51.280;7.950;2024-02-26T04:02:38;2.13;;;0.95;;
72053;SDS011;59918;51.280;7.950;2024-02-26T04:05:04;1.27;;;0.85;;
72053;SDS011;59918;51.280;7.950;2024-02-26T04:07:30;2.03;;;1.08;;
72053;SDS011;59918;51.280;7.950;2024-02-26T04:10:00;2.13;;;1.92;;
72053;SDS011;59918;51.280;7.950;2024-02-26T04:12:25;2.00;;;1.80;;
72053;SDS011;59918;51.280;7.950;2024-02-26T04:14:50;2.20;;;1.23;;
72053;SDS011;59918;51.280;7.950;2024-02-26T04:17:18;2.15;;;1.55;;
72053;SDS011;59918;51.280;7.950;2024-02-26T04:19:43;1.88;;;1.25;;
72053;SDS011;59918;51.280;7.950;2024-02-26T04:22:08;1.50;;;1.35;;
72053;SDS011;59918;51.280;7.950;2024-02-26T04:24:35;2.22;;;1.48;;
72053;SDS011;59918;51.280;7.950;2024-02-26T04:27:01;6.78;;;1.60;;
72053;SDS011;59918;51.280;7.950;2024-02-26T04:29:26;2.55;;;1.63;;
72053;SDS011;59918;51.280;7.950;2024-02-26T04:31:52;2.55;;;2.03;;
72053;SDS011;59918;51.280;7.950;2024-02-26T04:34:17;1.80;;;1.30;;
72053;SDS011;59918;51.280;7.950;2024-02-26T04:36:42;1.50;;;1.30;;
72053;SDS011;59918;51.280;7.950;2024-02-26T04:39:08;1.90;;;1.40;;
72053;SDS011;59918;51.280;7.950;2024-02-26T04:41:33;2.42;;;1.50;;
72053;SDS011;59918;51.280;7.950;2024-02-26T04:43:58;1.70;;;1.60;;
72053;SDS011;59918;51.280;7.950;2024-02-26T04:46:24;1.98;;;1.52;;
72053;SDS011;59918;51.280;7.950;2024-02-26T04:48:51;4.22;;;1.73;;
72053;SDS011;59918;51.280;7.950;2024-02-26T04:51:16;4.45;;;1.67;;
72053;SDS011;59918;51.280;7.950;2024-02-26T04:53:42;2.17;;;1.85;;
72053;SDS011;59918;51.280;7.950;2024-02-26T04:56:07;2.13;;;1.70;;
72053;SDS011;59918;51.280;7.950;2024-02-26T04:58:32;1.70;;;1.60;;
72053;SDS011;59918;51.280;7.950;2024-02-26T05:00:57;2.25;;;1.67;;
72053;SDS011;59918;51.280;7.950;2024-02-26T05:03:23;3.58;;;1.83;;
72053;SDS011;59918;51.280;7.950;2024-02-26T05:05:50;3.28;;;1.65;;
72053;SDS011;59918;51.280;7.950;2024-02-26T05:08:16;2.17;;;1.95;;
72053;SDS011;59918;51.280;7.950;2024-02-26T05:10:41;2.20;;;2.00;;
72053;SDS011;59918;51.280;7.950;2024-02-26T05:13:06;3.20;;;1.77;;
72053;SDS011;59918;51.280;7.950;2024-02-26T05:15:32;1.95;;;1.77;;
72053;SDS011;59918;51.280;7.950;2024-02-26T05:17:57;3.90;;;1.80;;
72053;SDS011;59918;51.280;7.950;2024-02-26T05:20:23;3.05;;;2.75;;
72053;SDS011;59918;51.280;7.950;2024-02-26T05:22:48;4.00;;;3.60;;
72053;SDS011;59918;51.280;7.950;2024-02-26T05:25:16;2.25;;;1.92;;
72053;SDS011;59918;51.280;7.950;2024-02-26T05:27:42;2.95;;;2.10;;
72053;SDS011;59918;51.280;7.950;2024-02-26T05:30:08;5.22;;;3.13;;
72053;SDS011;59918;51.280;7.950;2024-02-26T05:32:34;4.00;;;2.85;;
72053;SDS011;59918;51.280;7.950;2024-02-26T05:34:59;6.10;;;3.63;;
72053;SDS011;59918;51.280;7.950;2024-02-26T05:37:24;4.35;;;2.80;;
72053;SDS011;59918;51.280;7.950;2024-02-26T05:39:50;2.33;;;2.05;;
72053;SDS011;59918;51.280;7.950;2024-02-26T05:42:15;5.63;;;2.50;;
72053;SDS011;59918;51.280;7.950;2024-02-26T05:44:40;3.67;;;1.90;;
72053;SDS011;59918;51.280;7.950;2024-02-26T05:47:05;1.60;;;1.50;;
72053;SDS011;59918;51.280;7.950;2024-02-26T05:49:31;3.00;;;1.48;;
72053;SDS011;59918;51.280;7.950;2024-02-26T05:51:56;2.08;;;1.40;;
72053;SDS011;59918;51.280;7.950;2024-02-26T05:54:21;1.30;;;1.20;;
72053;SDS011;59918;51.280;7.950;2024-02-26T05:56:46;1.52;;;1.42;;
72053;SDS011;59918;51.280;7.950;2024-02-26T05:59:11;2.08;;;1.30;;
72053;SDS011;59918;51.280;7.950;2024-02-26T06:01:37;3.05;;;1.42;;
72053;SDS011;59918;51.280;7.950;2024-02-26T06:04:02;1.98;;;1.35;;
72053;SDS011;59918;51.280;7.950;2024-02-26T06:06:27;1.67;;;1.17;;
72053;SDS011;59918;51.280;7.950;2024-02-26T06:08:53;4.30;;;3.72;;
72053;SDS011;59918;51.280;7.950;2024-02-26T06:11:18;2.72;;;1.83;;
72053;SDS011;59918;51.280;7.950;2024-02-26T06:13:43;1.45;;;1.35;;
72053;SDS011;59918;51.280;7.950;2024-02-26T06:16:08;2.67;;;2.30;;
72053;SDS011;59918;51.280;7.950;2024-02-26T06:18:34;2.17;;;1.33;;
72053;SDS011;59918;51.280;7.950;2024-02-26T06:20:59;1.40;;;1.10;;
72053;SDS011;59918;51.280;7.950;2024-02-26T06:23:24;1.38;;;1.27;;
72053;SDS011;59918;51.280;7.950;2024-02-26T06:25:50;2.10;;;1.17;;
72053;SDS011;59918;51.280;7.950;2024-02-26T06:28:15;1.63;;;1.20;;
72053;SDS011;59918;51.280;7.950;2024-02-26T06:30:40;2.33;;;1.13;;
72053;SDS011;59918;51.280;7.950;2024-02-26T06:33:06;1.65;;;1.35;;
72053;SDS011;59918;51.280;7.950;2024-02-26T06:35:31;1.42;;;1.33;;
72053;SDS011;59918;51.280;7.950;2024-02-26T06:37:57;1.98;;;1.40;;
72053;SDS011;59918;51.280;7.950;2024-02-26T06:40:22;1.40;;;1.25;;
72053;SDS011;59918;51.280;7.950;2024-02-26T06:42:47;7.03;;;1.50;;
72053;SDS011;59918;51.280;7.950;2024-02-26T06:45:12;2.80;;;1.88;;
72053;SDS011;59918;51.280;7.950;2024-02-26T06:47:38;1.52;;;1.27;;
72053;SDS011;59918;51.280;7.950;2024-02-26T06:50:03;3.40;;;1.45;;
72053;SDS011;59918;51.280;7.950;2024-02-26T06:52:29;3.03;;;1.58;;
72053;SDS011;59918;51.280;7.950;2024-02-26T06:54:54;1.23;;;1.13;;
72053;SDS011;59918;51.280;7.950;2024-02-26T06:57:20;1.83;;;1.35;;
72053;SDS011;59918;51.280;7.950;2024-02-26T06:59:45;1.73;;;1.40;;
72053;SDS011;59918;51.280;7.950;2024-02-26T07:02:10;1.88;;;1.23;;
72053;SDS011;59918;51.280;7.950;2024-02-26T07:04:38;7.45;;;1.40;;
72053;SDS011;59918;51.280;7.950;2024-02-26T07:07:03;1.77;;;1.52;;
72053;SDS011;59918;51.280;7.950;2024-02-26T07:09:28;1.63;;;1.45;;
72053;SDS011;59918;51.280;7.950;2024-02-26T07:11:53;3.92;;;1.55;;
72053;SDS011;59918;51.280;7.950;2024-02-26T07:14:19;2.78;;;1.55;;
72053;SDS011;59918;51.280;7.950;2024-02-26T07:16:44;1.75;;;1.60;;
72053;SDS011;59918;51.280;7.950;2024-02-26T07:19:09;2.40;;;1.40;;
72053;SDS011;59918;51.280;7.950;2024-02-26T07:21:35;1.77;;;1.63;;
72053;SDS011;59918;51.280;7.950;2024-02-26T07:24:00;1.40;;;1.30;;
72053;SDS011;59918;51.280;7.950;2024-02-26T07:26:25;2.00;;;1.80;;
72053;SDS011;59918;51.280;7.950;2024-02-26T07:28:50;4.90;;;2.88;;
72053;SDS011;59918;51.280;7.950;2024-02-26T07:31:17;2.35;;;1.80;;
72053;SDS011;59918;51.280;7.950;2024-02-26T07:33:42;2.50;;;2.30;;
72053;SDS011;59918;51.280;7.950;2024-02-26T07:36:07;3.20;;;1.50;;
72053;SDS011;59918;51.280;7.950;2024-02-26T07:38:33;3.28;;;1.98;;
72053;SDS011;59918;51.280;7.950;2024-02-26T07:40:58;3.42;;;3.00;;
72053;SDS011;59918;51.280;7.950;2024-02-26T07:43:23;4.47;;;3.63;;
72053;SDS011;59918;51.280;7.950;2024-02-26T07:45:48;6.15;;;3.83;;
72053;SDS011;59918;51.280;7.950;2024-02-26T07:48:14;6.35;;;3.47;;
72053;SDS011;59918;51.280;7.950;2024-02-26T07:50:39;11.45;;;5.90;;
72053;SDS011;59918;51.280;7.950;2024-02-26T07:53:04;28.75;;;13.85;;
72053;SDS011;59918;51.280;7.950;2024-02-26T07:55:32;37.35;;;17.63;;
72053;SDS011;59918;51.280;7.950;2024-02-26T07:57:57;14.00;;;7.55;;
72053;SDS011;59918;51.280;7.950;2024-02-26T08:00:22;4.20;;;3.80;;
72053;SDS011;59918;51.280;7.950;2024-02-26T08:02:47;5.60;;;5.10;;
72053;SDS011;59918;51.280;7.950;2024-02-26T08:05:13;5.75;;;5.25;;
72053;SDS011;59918;51.280;7.950;2024-02-26T08:07:41;4.53;;;4.13;;
72053;SDS011;59918;51.280;7.950;2024-02-26T08:10:06;4.07;;;3.65;;
72053;SDS011;59918;51.280;7.950;2024-02-26T08:12:32;6.80;;;3.20;;
72053;SDS011;59918;51.280;7.950;2024-02-26T08:14:57;3.90;;;2.97;;
72053;SDS011;59918;51.280;7.950;2024-02-26T08:17:22;2.70;;;2.50;;
72053;SDS011;59918;51.280;7.950;2024-02-26T08:19:47;4.00;;;3.50;;
72053;SDS011;59918;51.280;7.950;2024-02-26T08:22:13;6.80;;;6.20;;
72053;SDS011;59918;51.280;7.950;2024-02-26T08:24:38;6.55;;;5.15;;
72053;SDS011;59918;51.280;7.950;2024-02-26T08:27:03;7.28;;;6.53;;
72053;SDS011;59918;51.280;7.950;2024-02-26T08:29:31;3.53;;;3.20;;
72053;SDS011;59918;51.280;7.950;2024-02-26T08:31:56;4.22;;;2.65;;
72053;SDS011;59918;51.280;7.950;2024-02-26T08:34:21;5.82;;;3.08;;
72053;SDS011;59918;51.280;7.950;2024-02-26T08:36:47;3.15;;;2.85;;
72053;SDS011;59918;51.280;7.950;2024-02-26T08:39:12;4.20;;;2.78;;
72053;SDS011;59918;51.280;7.950;2024-02-26T08:41:37;5.68;;;2.75;;
72053;SDS011;59918;51.280;7.950;2024-02-26T08:44:02;4.03;;;2.95;;
72053;SDS011;59918;51.280;7.950;2024-02-26T08:46:28;3.70;;;2.92;;
72053;SDS011;59918;51.280;7.950;2024-02-26T08:48:53;4.80;;;3.03;;
72053;SDS011;59918;51.280;7.950;2024-02-26T08:51:18;4.35;;;3.30;;
72053;SDS011;59918;51.280;7.950;2024-02-26T08:53:43;4.22;;;3.13;;
72053;SDS011;59918;51.280;7.950;2024-02-26T08:56:09;3.58;;;2.97;;
72053;SDS011;59918;51.280;7.950;2024-02-26T08:58:34;12.82;;;8.43;;
72053;SDS011;59918;51.280;7.950;2024-02-26T09:01:00;8.93;;;5.63;;
72053;SDS011;59918;51.280;7.950;2024-02-26T09:03:25;3.33;;;3.03;;
72053;SDS011;59918;51.280;7.950;2024-02-26T09:05:50;6.32;;;3.22;;
72053;SDS011;59918;51.280;7.950;2024-02-26T09:08:15;8.20;;;4.30;;
72053;SDS011;59918;51.280;7.950;2024-02-26T09:10:41;4.28;;;3.88;;
72053;SDS011;59918;51.280;7.950;2024-02-26T09:13:06;3.97;;;2.85;;
72053;SDS011;59918;51.280;7.950;2024-02-26T09:15:32;3.25;;;2.88;;
72053;SDS011;59918;51.280;7.950;2024-02-26T09:17:57;2.80;;;2.47;;
72053;SDS011;59918;51.280;7.950;2024-02-26T09:20:22;2.78;;;2.58;;
72053;SDS011;59918;51.280;7.950;2024-02-26T09:22:48;2.72;;;2.53;;
72053;SDS011;59918;51.280;7.950;2024-02-26T09:25:13;5.57;;;2.92;;
72053;SDS011;59918;51.280;7.950;2024-02-26T09:27:38;2.50;;;2.30;;
72053;SDS011;59918;51.280;7.950;2024-02-26T09:30:04;4.55;;;2.63;;
72053;SDS011;59918;51.280;7.950;2024-02-26T09:32:29;3.15;;;2.58;;
72053;SDS011;59918;51.280;7.950;2024-02-26T09:34:55;3.70;;;2.40;;
72053;SDS011;59918;51.280;7.950;2024-02-26T09:37:20;3.47;;;3.08;;
72053;SDS011;59918;51.280;7.950;2024-02-26T09:39:45;2.55;;;2.03;;
72053;SDS011;59918;51.280;7.950;2024-02-26T09:42:10;3.78;;;2.80;;
72053;SDS011;59918;51.280;7.950;2024-02-26T09:44:38;3.90;;;3.42;;
72053;SDS011;59918;51.280;7.950;2024-02-26T09:47:05;4.80;;;4.28;;
72053;SDS011;59918;51.280;7.950;2024-02-26T09:49:32;6.57;;;3.42;;
72053;SDS011;59918;51.280;7.950;2024-02-26T09:51:58;3.30;;;2.45;;
72053;SDS011;59918;51.280;7.950;2024-02-26T09:54:24;3.83;;;2.58;;
72053;SDS011;59918;51.280;7.950;2024-02-26T09:56:50;2.53;;;2.33;;
72053;SDS011;59918;51.280;7.950;2024-02-26T09:59:18;2.70;;;2.50;;
72053;SDS011;59918;51.280;7.950;2024-02-26T10:01:44;3.28;;;2.38;;
72053;SDS011;59918;51.280;7.950;2024-02-26T10:04:11;2.92;;;2.72;;
72053;SDS011;59918;51.280;7.950;2024-02-26T10:06:37;2.95;;;2.42;;
72053;SDS011;59918;51.280;7.950;2024-02-26T10:09:02;3.40;;;3.10;;
72053;SDS011;59918;51.280;7.950;2024-02-26T10:11:28;3.22;;;2.92;;
72053;SDS011;59918;51.280;7.950;2024-02-26T10:13:53;4.50;;;2.53;;
72053;SDS011;59918;51.280;7.950;2024-02-26T10:16:19;3.22;;;2.90;;
72053;SDS011;59918;51.280;7.950;2024-02-26T10:18:51;5.13;;;3.95;;
72053;SDS011;59918;51.280;7.950;2024-02-26T10:21:18;4.63;;;4.13;;
72053;SDS011;59918;51.280;7.950;2024-02-26T10:23:44;2.92;;;2.65;;
72053;SDS011;59918;51.280;7.950;2024-02-26T10:26:10;3.28;;;2.40;;
72053;SDS011;59918;51.280;7.950;2024-02-26T10:28:36;3.38;;;2.50;;
72053;SDS011;59918;51.280;7.950;2024-02-26T10:31:01;2.78;;;2.35;;
72053;SDS011;59918;51.280;7.950;2024-02-26T10:33:26;2.88;;;2.65;;
72053;SDS011;59918;51.280;7.950;2024-02-26T10:35:52;3.60;;;3.28;;
72053;SDS011;59918;51.280;7.950;2024-02-26T10:38:19;7.10;;;2.95;;
72053;SDS011;59918;51.280;7.950;2024-02-26T10:40:44;6.57;;;3.60;;
72053;SDS011;59918;51.280;7.950;2024-02-26T10:43:09;4.57;;;3.70;;
72053;SDS011;59918;51.280;7.950;2024-02-26T10:45:35;4.28;;;2.97;;
72053;SDS011;59918;51.280;7.950;2024-02-26T10:48:00;6.50;;;3.85;;
72053;SDS011;59918;51.280;7.950;2024-02-26T10:50:25;4.70;;;4.25;;
72053;SDS011;59918;51.280;7.950;2024-02-26T10:52:51;9.32;;;5.75;;
72053;SDS011;59918;51.280;7.950;2024-02-26T10:55:17;6.00;;;5.07;;
72053;SDS011;59918;51.280;7.950;2024-02-26T10:57:42;5.10;;;3.85;;
72053;SDS011;59918;51.280;7.950;2024-02-26T11:00:10;4.85;;;3.97;;
72053;SDS011;59918;51.280;7.950;2024-02-26T11:02:39;5.63;;;4.15;;
72053;SDS011;59918;51.280;7.950;2024-02-26T11:05:07;5.57;;;4.20;;
72053;SDS011;59918;51.280;7.950;2024-02-26T11:07:35;5.00;;;4.30;;
72053;SDS011;59918;51.280;7.950;2024-02-26T11:10:02;6.03;;;4.80;;
72053;SDS011;59918;51.280;7.950;2024-02-26T11:12:29;7.25;;;5.15;;
72053;SDS011;59918;51.280;7.950;2024-02-26T11:14:55;7.10;;;5.40;;
72053;SDS011;59918;51.280;7.950;2024-02-26T11:17:21;6.18;;;4.88;;
72053;SDS011;59918;51.280;7.950;2024-02-26T11:19:51;7.47;;;4.82;;
72053;SDS011;59918;51.280;7.950;2024-02-26T11:22:19;7.15;;;5.28;;
72053;SDS011;59918;51.280;7.950;2024-02-26T11:24:45;7.60;;;5.90;;
72053;SDS011;59918;51.280;7.950;2024-02-26T11:27:10;9.52;;;6.43;;
72053;SDS011;59918;51.280;7.950;2024-02-26T11:29:41;8.63;;;6.03;;
72053;SDS011;59918;51.280;7.950;2024-02-26T11:32:09;11.57;;;6.80;;
72053;SDS011;59918;51.280;7.950;2024-02-26T11:34:35;10.00;;;7.10;;
72053;SDS011;59918;51.280;7.950;2024-02-26T11:37:10;10.27;;;7.47;;
72053;SDS011;59918;51.280;7.950;2024-02-26T11:39:36;11.80;;;7.00;;
72053;SDS011;59918;51.280;7.950;2024-02-26T11:42:06;9.77;;;6.60;;
72053;SDS011;59918;51.280;7.950;2024-02-26T11:44:32;10.80;;;6.65;;
72053;SDS011;59918;51.280;7.950;2024-02-26T11:46:57;13.00;;;9.23;;
72053;SDS011;59918;51.280;7.950;2024-02-26T11:51:51;11.32;;;7.10;;
72053;SDS011;59918;51.280;7.950;2024-02-26T11:57:04;13.50;;;8.00;;
72053;SDS011;59918;51.280;7.950;2024-02-26T11:59:45;11.73;;;7.65;;
72053;SDS011;59918;51.280;7.950;2024-02-26T12:02:10;13.23;;;8.05;;
72053;SDS011;59918;51.280;7.950;2024-02-26T12:04:35;13.52;;;9.20;;
72053;SDS011;59918;51.280;7.950;2024-02-26T12:07:02;15.25;;;8.27;;
72053;SDS011;59918;51.280;7.950;2024-02-26T12:12:00;13.43;;;8.73;;
72053;SDS011;59918;51.280;7.950;2024-02-26T12:14:26;16.05;;;8.80;;
72053;SDS011;59918;51.280;7.950;2024-02-26T12:16:52;14.30;;;9.23;;
72053;SDS011;59918;51.280;7.950;2024-02-26T12:19:18;14.98;;;8.60;;
72053;SDS011;59918;51.280;7.950;2024-02-26T12:21:43;13.60;;;8.15;;
72053;SDS011;59918;51.280;7.950;2024-02-26T12:24:15;16.65;;;9.82;;
72053;SDS011;59918;51.280;7.950;2024-02-26T12:26:40;13.77;;;8.95;;
72053;SDS011;59918;51.280;7.950;2024-02-26T12:29:06;19.80;;;10.20;;
72053;SDS011;59918;51.280;7.950;2024-02-26T12:31:32;13.80;;;9.82;;
72053;SDS011;59918;51.280;7.950;2024-02-26T12:33:58;15.40;;;9.23;;
72053;SDS011;59918;51.280;7.950;2024-02-26T12:36:26;13.40;;;9.45;;
72053;SDS011;59918;51.280;7.950;2024-02-26T12:38:52;14.30;;;9.60;;
72053;SDS011;59918;51.280;7.950;2024-02-26T12:41:17;15.30;;;10.48;;
72053;SDS011;59918;51.280;7.950;2024-02-26T12:43:43;14.43;;;9.15;;
72053;SDS011;59918;51.280;7.950;2024-02-26T12:46:11;14.13;;;9.70;;
72053;SDS011;59918;51.280;7.950;2024-02-26T12:48:37;14.15;;;9.45;;
72053;SDS011;59918;51.280;7.950;2024-02-26T12:51:02;16.42;;;9.10;;
72053;SDS011;59918;51.280;7.950;2024-02-26T12:53:30;13.57;;;9.32;;
72053;SDS011;59918;51.280;7.950;2024-02-26T12:55:55;15.10;;;8.60;;
72053;SDS011;59918;51.280;7.950;2024-02-26T12:58:21;12.52;;;8.85;;
72053;SDS011;59918;51.280;7.950;2024-02-26T13:00:47;10.50;;;8.05;;
72053;SDS011;59918;51.280;7.950;2024-02-26T13:03:12;11.48;;;8.27;;
72053;SDS011;59918;51.280;7.950;2024-02-26T13:05:38;11.43;;;7.95;;
72053;SDS011;59918;51.280;7.950;2024-02-26T13:08:04;12.02;;;8.18;;
72053;SDS011;59918;51.280;7.950;2024-02-26T13:10:31;12.50;;;9.07;;
72053;SDS011;59918;51.280;7.950;2024-02-26T13:12:56;13.20;;;8.52;;
72053;SDS011;59918;51.280;7.950;2024-02-26T13:15:22;12.00;;;8.02;;
72053;SDS011;59918;51.280;7.950;2024-02-26T13:17:47;11.98;;;8.43;;
72053;SDS011;59918;51.280;7.950;2024-02-26T13:20:24;9.45;;;7.22;;
72053;SDS011;59918;51.280;7.950;2024-02-26T13:23:00;10.90;;;7.30;;
72053;SDS011;59918;51.280;7.950;2024-02-26T13:25:26;9.85;;;7.20;;
72053;SDS011;59918;51.280;7.950;2024-02-26T13:27:52;10.15;;;8.05;;
72053;SDS011;59918;51.280;7.950;2024-02-26T13:30:17;10.25;;;7.47;;
72053;SDS011;59918;51.280;7.950;2024-02-26T13:32:42;12.75;;;7.35;;
72053;SDS011;59918;51.280;7.950;2024-02-26T13:35:11;9.43;;;7.38;;
72053;SDS011;59918;51.280;7.950;2024-02-26T13:37:38;10.35;;;7.28;;
72053;SDS011;59918;51.280;7.950;2024-02-26T13:40:07;10.30;;;7.65;;
72053;SDS011;59918;51.280;7.950;2024-02-26T13:42:34;8.65;;;6.57;;
72053;SDS011;59918;51.280;7.950;2024-02-26T13:44:59;12.07;;;7.45;;
72053;SDS011;59918;51.280;7.950;2024-02-26T13:47:25;9.95;;;7.03;;
72053;SDS011;59918;51.280;7.950;2024-02-26T13:49:50;11.25;;;7.75;;
72053;SDS011;59918;51.280;7.950;2024-02-26T13:52:15;13.13;;;7.82;;
72053;SDS011;59918;51.280;7.950;2024-02-26T13:54:40;10.80;;;6.72;;
72053;SDS011;59918;51.280;7.950;2024-02-26T13:57:06;11.18;;;6.35;;
72053;SDS011;59918;51.280;7.950;2024-02-26T13:59:31;8.38;;;6.88;;
72053;SDS011;59918;51.280;7.950;2024-02-26T14:01:57;10.75;;;7.10;;
72053;SDS011;59918;51.280;7.950;2024-02-26T14:04:22;9.10;;;6.68;;
72053;SDS011;59918;51.280;7.950;2024-02-26T14:06:49;9.27;;;6.82;;
72053;SDS011;59918;51.280;7.950;2024-02-26T14:09:15;10.48;;;6.55;;
72053;SDS011;59918;51.280;7.950;2024-02-26T14:11:40;8.32;;;6.32;;
72053;SDS011;59918;51.280;7.950;2024-02-26T14:14:08;9.25;;;6.25;;
72053;SDS011;59918;51.280;7.950;2024-02-26T14:16:33;10.57;;;6.60;;
72053;SDS011;59918;51.280;7.950;2024-02-26T14:18:58;10.38;;;6.75;;
72053;SDS011;59918;51.280;7.950;2024-02-26T14:21:26;7.45;;;6.15;;
72053;SDS011;59918;51.280;7.950;2024-02-26T14:23:51;9.73;;;5.97;;
72053;SDS011;59918;51.280;7.950;2024-02-26T14:26:17;6.63;;;5.68;;
72053;SDS011;59918;51.280;7.950;2024-02-26T14:28:42;8.20;;;6.05;;
72053;SDS011;59918;51.280;7.950;2024-02-26T14:31:07;10.05;;;6.30;;
72053;SDS011;59918;51.280;7.950;2024-02-26T14:33:32;7.78;;;5.97;;
72053;SDS011;59918;51.280;7.950;2024-02-26T14:35:57;8.73;;;5.90;;
72053;SDS011;59918;51.280;7.950;2024-02-26T14:38:23;8.93;;;5.70;;
72053;SDS011;59918;51.280;7.950;2024-02-26T14:40:48;9.02;;;6.20;;
72053;SDS011;59918;51.280;7.950;2024-02-26T14:43:13;7.60;;;5.68;;
72053;SDS011;59918;51.280;7.950;2024-02-26T14:45:38;6.95;;;5.35;;